sensor_id;sensor_type;location;lat;lon;timestamp;P1;durP1;ratioP1;P2;durP2;ratioP2
26965;SDS011;14522;52.068;4.414;2023-07-31T00:00:56;14.48;;;4.13;;
26965;SDS011;14522;52.068;4.414;2023-07-31T00:03:23;13.20;;;4.15;;
26965;SDS011;14522;52.068;4.414;2023-07-31T00:05:49;12.32;;;4.07;;
26965;SDS011;14522;52.068;4.414;2023-07-31T00:08:16;13.23;;;3.55;;
26965;SDS011;14522;52.068;4.414;2023-07-31T00:10:42;10.40;;;3.45;;
26965;SDS011;14522;52.068;4.414;2023-07-31T00:13:08;16.38;;;3.88;;
26965;SDS011;14522;52.068;4.414;2023-07-31T00:15:36;13.32;;;4.45;;
26965;SDS011;14522;52.068;4.414;2023-07-31T00:18:02;18.63;;;4.45;;
26965;SDS011;14522;52.068;4.414;2023-07-31T00:20:28;20.73;;;4.63;;
26965;SDS011;14522;52.068;4.414;2023-07-31T00:22:55;16.80;;;3.70;;
26965;SDS011;14522;52.068;4.414;2023-07-31T00:25:22;19.13;;;4.13;;
26965;SDS011;14522;52.068;4.414;2023-07-31T00:27:48;11.82;;;3.42;;
26965;SDS011;14522;52.068;4.414;2023-07-31T00:30:15;15.10;;;3.38;;
26965;SDS011;14522;52.068;4.414;2023-07-31T00:32:41;12.80;;;4.25;;
26965;SDS011;14522;52.068;4.414;2023-07-31T00:35:08;11.73;;;3.25;;
26965;SDS011;14522;52.068;4.414;2023-07-31T00:37:34;12.27;;;3.25;;
26965;SDS011;14522;52.068;4.414;2023-07-31T00:40:00;15.52;;;4.07;;
26965;SDS011;14522;52.068;4.414;2023-07-31T00:42:27;13.07;;;2.95;;
26965;SDS011;14522;52.068;4.414;2023-07-31T00:44:53;13.07;;;4.07;;
26965;SDS011;14522;52.068;4.414;2023-07-31T00:47:20;14.00;;;3.95;;
26965;SDS011;14522;52.068;4.414;2023-07-31T00:49:46;16.00;;;4.65;;
26965;SDS011;14522;52.068;4.414;2023-07-31T00:52:12;12.20;;;3.38;;
26965;SDS011;14522;52.068;4.414;2023-07-31T00:54:39;14.95;;;4.00;;
26965;SDS011;14522;52.068;4.414;2023-07-31T00:57:06;15.20;;;3.72;;
26965;SDS011;14522;52.068;4.414;2023-07-31T00:59:34;19.75;;;5.90;;
26965;SDS011;14522;52.068;4.414;2023-07-31T01:02:00;21.17;;;4.00;;
26965;SDS011;14522;52.068;4.414;2023-07-31T01:04:27;11.85;;;3.50;;
26965;SDS011;14522;52.068;4.414;2023-07-31T01:07:01;20.95;;;4.28;;
26965;SDS011;14522;52.068;4.414;2023-07-31T01:12:02;19.73;;;4.28;;
26965;SDS011;14522;52.068;4.414;2023-07-31T01:14:29;17.23;;;4.57;;
26965;SDS011;14522;52.068;4.414;2023-07-31T01:16:55;16.48;;;3.85;;
26965;SDS011;14522;52.068;4.414;2023-07-31T01:19:23;15.38;;;4.13;;
26965;SDS011;14522;52.068;4.414;2023-07-31T01:25:22;17.58;;;4.78;;
26965;SDS011;14522;52.068;4.414;2023-07-31T01:27:23;12.30;;;3.72;;
26965;SDS011;14522;52.068;4.414;2023-07-31T01:29:59;14.77;;;4.00;;
26965;SDS011;14522;52.068;4.414;2023-07-31T01:32:27;11.95;;;3.78;;
26965;SDS011;14522;52.068;4.414;2023-07-31T01:34:54;18.33;;;4.28;;
26965;SDS011;14522;52.068;4.414;2023-07-31T01:37:21;15.43;;;4.90;;
26965;SDS011;14522;52.068;4.414;2023-07-31T01:39:47;21.30;;;4.38;;
26965;SDS011;14522;52.068;4.414;2023-07-31T01:42:14;22.02;;;4.47;;
26965;SDS011;14522;52.068;4.414;2023-07-31T01:44:40;19.08;;;4.85;;
26965;SDS011;14522;52.068;4.414;2023-07-31T01:47:07;12.18;;;3.45;;
26965;SDS011;14522;52.068;4.414;2023-07-31T01:49:33;18.83;;;4.38;;
26965;SDS011;14522;52.068;4.414;2023-07-31T01:51:59;16.83;;;4.00;;
26965;SDS011;14522;52.068;4.414;2023-07-31T01:54:26;15.30;;;3.88;;
26965;SDS011;14522;52.068;4.414;2023-07-31T01:56:52;20.90;;;4.20;;
26965;SDS011;14522;52.068;4.414;2023-07-31T01:59:19;17.88;;;3.65;;
26965;SDS011;14522;52.068;4.414;2023-07-31T02:01:45;17.50;;;4.05;;
26965;SDS011;14522;52.068;4.414;2023-07-31T02:04:11;14.52;;;3.70;;
26965;SDS011;14522;52.068;4.414;2023-07-31T02:06:38;23.00;;;4.82;;
26965;SDS011;14522;52.068;4.414;2023-07-31T02:09:05;15.60;;;4.72;;
26965;SDS011;14522;52.068;4.414;2023-07-31T02:11:32;16.52;;;5.15;;
26965;SDS011;14522;52.068;4.414;2023-07-31T02:13:58;19.13;;;4.75;;
26965;SDS011;14522;52.068;4.414;2023-07-31T02:16:24;10.50;;;3.47;;
26965;SDS011;14522;52.068;4.414;2023-07-31T02:18:51;28.42;;;5.30;;
26965;SDS011;14522;52.068;4.414;2023-07-31T02:21:17;17.60;;;4.82;;
26965;SDS011;14522;52.068;4.414;2023-07-31T02:23:44;19.95;;;4.75;;
26965;SDS011;14522;52.068;4.414;2023-07-31T02:26:10;20.30;;;5.22;;
26965;SDS011;14522;52.068;4.414;2023-07-31T02:28:36;16.95;;;4.10;;
26965;SDS011;14522;52.068;4.414;2023-07-31T02:31:03;12.13;;;3.78;;
26965;SDS011;14522;52.068;4.414;2023-07-31T02:33:30;16.83;;;4.68;;
26965;SDS011;14522;52.068;4.414;2023-07-31T02:35:56;17.95;;;4.18;;
26965;SDS011;14522;52.068;4.414;2023-07-31T02:38:23;14.63;;;4.25;;
26965;SDS011;14522;52.068;4.414;2023-07-31T02:40:49;17.33;;;3.90;;
26965;SDS011;14522;52.068;4.414;2023-07-31T02:43:16;20.42;;;4.20;;
26965;SDS011;14522;52.068;4.414;2023-07-31T02:45:42;15.07;;;3.65;;
26965;SDS011;14522;52.068;4.414;2023-07-31T02:48:09;15.65;;;4.28;;
26965;SDS011;14522;52.068;4.414;2023-07-31T02:50:35;16.60;;;4.25;;
26965;SDS011;14522;52.068;4.414;2023-07-31T02:53:01;12.35;;;3.80;;
26965;SDS011;14522;52.068;4.414;2023-07-31T02:55:28;19.90;;;4.38;;
26965;SDS011;14522;52.068;4.414;2023-07-31T02:57:54;16.42;;;3.72;;
26965;SDS011;14522;52.068;4.414;2023-07-31T03:00:20;12.00;;;3.92;;
26965;SDS011;14522;52.068;4.414;2023-07-31T03:02:47;13.02;;;3.53;;
26965;SDS011;14522;52.068;4.414;2023-07-31T03:05:14;25.02;;;4.22;;
26965;SDS011;14522;52.068;4.414;2023-07-31T03:07:40;19.08;;;3.90;;
26965;SDS011;14522;52.068;4.414;2023-07-31T03:10:07;16.38;;;4.00;;
26965;SDS011;14522;52.068;4.414;2023-07-31T03:12:33;17.77;;;4.45;;
26965;SDS011;14522;52.068;4.414;2023-07-31T03:15:00;19.88;;;3.90;;
26965;SDS011;14522;52.068;4.414;2023-07-31T03:17:26;22.17;;;4.55;;
26965;SDS011;14522;52.068;4.414;2023-07-31T03:19:52;17.00;;;3.83;;
26965;SDS011;14522;52.068;4.414;2023-07-31T03:22:19;20.80;;;4.60;;
26965;SDS011;14522;52.068;4.414;2023-07-31T03:24:45;19.00;;;4.65;;
26965;SDS011;14522;52.068;4.414;2023-07-31T03:27:12;21.95;;;4.57;;
26965;SDS011;14522;52.068;4.414;2023-07-31T03:29:38;15.00;;;3.63;;
26965;SDS011;14522;52.068;4.414;2023-07-31T03:32:04;16.23;;;3.78;;
26965;SDS011;14522;52.068;4.414;2023-07-31T03:34:31;16.20;;;3.72;;
26965;SDS011;14522;52.068;4.414;2023-07-31T03:36:58;19.30;;;4.15;;
26965;SDS011;14522;52.068;4.414;2023-07-31T03:39:24;11.02;;;3.25;;
26965;SDS011;14522;52.068;4.414;2023-07-31T03:41:51;11.88;;;3.35;;
26965;SDS011;14522;52.068;4.414;2023-07-31T03:44:17;21.45;;;4.05;;
26965;SDS011;14522;52.068;4.414;2023-07-31T03:46:44;17.33;;;3.20;;
26965;SDS011;14522;52.068;4.414;2023-07-31T03:49:10;17.02;;;3.03;;
26965;SDS011;14522;52.068;4.414;2023-07-31T03:51:36;12.27;;;2.58;;
26965;SDS011;14522;52.068;4.414;2023-07-31T03:54:03;9.43;;;2.08;;
26965;SDS011;14522;52.068;4.414;2023-07-31T03:56:29;8.73;;;2.80;;
26965;SDS011;14522;52.068;4.414;2023-07-31T03:58:59;9.88;;;2.25;;
26965;SDS011;14522;52.068;4.414;2023-07-31T04:01:25;9.95;;;1.80;;
26965;SDS011;14522;52.068;4.414;2023-07-31T04:03:52;8.13;;;2.00;;
26965;SDS011;14522;52.068;4.414;2023-07-31T04:06:18;11.05;;;2.20;;
26965;SDS011;14522;52.068;4.414;2023-07-31T04:08:45;4.55;;;1.35;;
26965;SDS011;14522;52.068;4.414;2023-07-31T04:11:11;4.78;;;1.55;;
26965;SDS011;14522;52.068;4.414;2023-07-31T04:13:38;5.63;;;1.70;;
26965;SDS011;14522;52.068;4.414;2023-07-31T04:16:05;4.32;;;1.33;;
26965;SDS011;14522;52.068;4.414;2023-07-31T04:18:31;5.57;;;1.40;;
26965;SDS011;14522;52.068;4.414;2023-07-31T04:20:58;3.67;;;1.13;;
26965;SDS011;14522;52.068;4.414;2023-07-31T04:23:25;3.53;;;1.23;;
26965;SDS011;14522;52.068;4.414;2023-07-31T04:25:51;3.72;;;1.10;;
26965;SDS011;14522;52.068;4.414;2023-07-31T04:28:17;3.33;;;0.90;;
26965;SDS011;14522;52.068;4.414;2023-07-31T04:30:44;2.88;;;0.90;;
26965;SDS011;14522;52.068;4.414;2023-07-31T04:33:14;3.83;;;1.05;;
26965;SDS011;14522;52.068;4.414;2023-07-31T04:35:40;3.95;;;0.70;;
26965;SDS011;14522;52.068;4.414;2023-07-31T04:38:07;3.40;;;0.82;;
26965;SDS011;14522;52.068;4.414;2023-07-31T04:40:33;1.95;;;0.88;;
26965;SDS011;14522;52.068;4.414;2023-07-31T04:43:00;3.63;;;0.73;;
26965;SDS011;14522;52.068;4.414;2023-07-31T04:45:26;4.57;;;1.02;;
26965;SDS011;14522;52.068;4.414;2023-07-31T04:47:52;2.38;;;0.73;;
26965;SDS011;14522;52.068;4.414;2023-07-31T04:50:19;1.55;;;0.50;;
26965;SDS011;14522;52.068;4.414;2023-07-31T04:52:45;1.80;;;0.75;;
26965;SDS011;14522;52.068;4.414;2023-07-31T04:55:12;1.55;;;0.50;;
26965;SDS011;14522;52.068;4.414;2023-07-31T04:57:38;1.95;;;0.80;;
26965;SDS011;14522;52.068;4.414;2023-07-31T05:00:05;1.23;;;0.50;;
26965;SDS011;14522;52.068;4.414;2023-07-31T05:02:31;1.10;;;0.70;;
26965;SDS011;14522;52.068;4.414;2023-07-31T05:04:58;1.13;;;0.60;;
26965;SDS011;14522;52.068;4.414;2023-07-31T05:07:24;1.95;;;0.70;;
26965;SDS011;14522;52.068;4.414;2023-07-31T05:09:51;1.42;;;0.60;;
26965;SDS011;14522;52.068;4.414;2023-07-31T05:12:17;1.77;;;0.73;;
26965;SDS011;14522;52.068;4.414;2023-07-31T05:14:43;2.13;;;0.85;;
26965;SDS011;14522;52.068;4.414;2023-07-31T05:17:10;4.38;;;0.70;;
26965;SDS011;14522;52.068;4.414;2023-07-31T05:19:36;1.70;;;0.88;;
26965;SDS011;14522;52.068;4.414;2023-07-31T05:22:03;1.75;;;0.80;;
26965;SDS011;14522;52.068;4.414;2023-07-31T05:24:29;3.10;;;0.80;;
26965;SDS011;14522;52.068;4.414;2023-07-31T05:26:55;1.77;;;0.95;;
26965;SDS011;14522;52.068;4.414;2023-07-31T05:29:22;1.95;;;0.70;;
26965;SDS011;14522;52.068;4.414;2023-07-31T05:31:48;1.27;;;0.82;;
26965;SDS011;14522;52.068;4.414;2023-07-31T05:34:15;2.38;;;0.93;;
26965;SDS011;14522;52.068;4.414;2023-07-31T05:36:41;1.75;;;0.73;;
26965;SDS011;14522;52.068;4.414;2023-07-31T05:39:08;0.85;;;0.50;;
26965;SDS011;14522;52.068;4.414;2023-07-31T05:41:35;1.42;;;0.70;;
26965;SDS011;14522;52.068;4.414;2023-07-31T05:44:01;1.70;;;0.70;;
26965;SDS011;14522;52.068;4.414;2023-07-31T05:46:28;0.90;;;0.55;;
26965;SDS011;14522;52.068;4.414;2023-07-31T05:48:54;1.10;;;0.55;;
26965;SDS011;14522;52.068;4.414;2023-07-31T05:51:21;1.52;;;0.70;;
26965;SDS011;14522;52.068;4.414;2023-07-31T05:53:47;1.60;;;0.63;;
26965;SDS011;14522;52.068;4.414;2023-07-31T05:56:14;1.67;;;0.77;;
26965;SDS011;14522;52.068;4.414;2023-07-31T05:58:40;1.52;;;0.60;;
26965;SDS011;14522;52.068;4.414;2023-07-31T06:01:06;0.68;;;0.47;;
26965;SDS011;14522;52.068;4.414;2023-07-31T06:03:33;0.70;;;0.40;;
26965;SDS011;14522;52.068;4.414;2023-07-31T06:06:00;0.90;;;0.40;;
26965;SDS011;14522;52.068;4.414;2023-07-31T06:08:26;1.90;;;0.30;;
26965;SDS011;14522;52.068;4.414;2023-07-31T06:10:52;0.60;;;0.38;;
26965;SDS011;14522;52.068;4.414;2023-07-31T06:13:19;1.15;;;0.40;;
26965;SDS011;14522;52.068;4.414;2023-07-31T06:15:45;2.72;;;0.63;;
26965;SDS011;14522;52.068;4.414;2023-07-31T06:18:12;1.80;;;0.65;;
26965;SDS011;14522;52.068;4.414;2023-07-31T06:20:39;1.60;;;0.55;;
26965;SDS011;14522;52.068;4.414;2023-07-31T06:23:06;1.23;;;0.82;;
26965;SDS011;14522;52.068;4.414;2023-07-31T06:25:33;1.27;;;0.73;;
26965;SDS011;14522;52.068;4.414;2023-07-31T06:27:59;1.13;;;0.57;;
26965;SDS011;14522;52.068;4.414;2023-07-31T06:30:26;1.10;;;0.65;;
26965;SDS011;14522;52.068;4.414;2023-07-31T06:32:52;1.42;;;0.40;;
26965;SDS011;14522;52.068;4.414;2023-07-31T06:35:18;1.33;;;0.40;;
26965;SDS011;14522;52.068;4.414;2023-07-31T06:37:45;1.90;;;0.60;;
26965;SDS011;14522;52.068;4.414;2023-07-31T06:40:11;4.03;;;0.80;;
26965;SDS011;14522;52.068;4.414;2023-07-31T06:42:38;1.15;;;0.65;;
26965;SDS011;14522;52.068;4.414;2023-07-31T06:45:04;1.85;;;0.75;;
26965;SDS011;14522;52.068;4.414;2023-07-31T06:47:31;2.08;;;0.93;;
26965;SDS011;14522;52.068;4.414;2023-07-31T06:49:58;4.70;;;0.90;;
26965;SDS011;14522;52.068;4.414;2023-07-31T06:52:24;3.65;;;1.23;;
26965;SDS011;14522;52.068;4.414;2023-07-31T06:55:01;3.50;;;1.05;;
26965;SDS011;14522;52.068;4.414;2023-07-31T06:57:29;2.40;;;1.00;;
26965;SDS011;14522;52.068;4.414;2023-07-31T06:59:55;5.60;;;1.23;;
26965;SDS011;14522;52.068;4.414;2023-07-31T07:02:22;5.40;;;1.38;;
26965;SDS011;14522;52.068;4.414;2023-07-31T07:04:48;7.20;;;1.10;;
26965;SDS011;14522;52.068;4.414;2023-07-31T07:07:15;5.40;;;0.75;;
26965;SDS011;14522;52.068;4.414;2023-07-31T07:09:41;2.72;;;1.10;;
26965;SDS011;14522;52.068;4.414;2023-07-31T07:12:08;3.72;;;1.13;;
26965;SDS011;14522;52.068;4.414;2023-07-31T07:14:34;3.85;;;1.10;;
26965;SDS011;14522;52.068;4.414;2023-07-31T07:17:01;2.05;;;0.75;;
26965;SDS011;14522;52.068;4.414;2023-07-31T07:19:27;6.03;;;1.27;;
26965;SDS011;14522;52.068;4.414;2023-07-31T07:21:54;5.07;;;1.40;;
26965;SDS011;14522;52.068;4.414;2023-07-31T07:24:20;5.07;;;1.40;;
26965;SDS011;14522;52.068;4.414;2023-07-31T07:26:46;1.83;;;0.77;;
26965;SDS011;14522;52.068;4.414;2023-07-31T07:29:13;3.10;;;0.82;;
26965;SDS011;14522;52.068;4.414;2023-07-31T07:31:39;1.73;;;0.68;;
26965;SDS011;14522;52.068;4.414;2023-07-31T07:34:05;1.65;;;0.40;;
26965;SDS011;14522;52.068;4.414;2023-07-31T07:36:32;1.05;;;0.40;;
26965;SDS011;14522;52.068;4.414;2023-07-31T07:38:59;1.52;;;0.57;;
26965;SDS011;14522;52.068;4.414;2023-07-31T07:41:25;1.25;;;0.50;;
26965;SDS011;14522;52.068;4.414;2023-07-31T07:43:52;3.30;;;0.55;;
26965;SDS011;14522;52.068;4.414;2023-07-31T07:46:18;1.27;;;0.57;;
26965;SDS011;14522;52.068;4.414;2023-07-31T07:48:45;2.35;;;0.80;;
26965;SDS011;14522;52.068;4.414;2023-07-31T07:51:11;3.42;;;0.98;;
26965;SDS011;14522;52.068;4.414;2023-07-31T07:53:37;6.18;;;1.25;;
26965;SDS011;14522;52.068;4.414;2023-07-31T07:56:04;5.28;;;1.58;;
26965;SDS011;14522;52.068;4.414;2023-07-31T07:58:30;5.18;;;1.35;;
26965;SDS011;14522;52.068;4.414;2023-07-31T08:00:57;5.68;;;1.55;;
26965;SDS011;14522;52.068;4.414;2023-07-31T08:03:23;4.32;;;1.20;;
26965;SDS011;14522;52.068;4.414;2023-07-31T08:05:50;6.05;;;1.30;;
26965;SDS011;14522;52.068;4.414;2023-07-31T08:08:16;6.40;;;1.65;;
26965;SDS011;14522;52.068;4.414;2023-07-31T08:10:43;5.20;;;1.80;;
26965;SDS011;14522;52.068;4.414;2023-07-31T08:13:10;5.22;;;1.48;;
26965;SDS011;14522;52.068;4.414;2023-07-31T08:15:37;5.32;;;1.45;;
26965;SDS011;14522;52.068;4.414;2023-07-31T08:18:03;8.20;;;1.42;;
26965;SDS011;14522;52.068;4.414;2023-07-31T08:20:31;5.07;;;1.65;;
26965;SDS011;14522;52.068;4.414;2023-07-31T08:22:57;14.23;;;1.85;;
26965;SDS011;14522;52.068;4.414;2023-07-31T08:25:24;9.98;;;2.05;;
26965;SDS011;14522;52.068;4.414;2023-07-31T08:27:51;6.80;;;1.63;;
26965;SDS011;14522;52.068;4.414;2023-07-31T08:30:19;9.32;;;1.80;;
26965;SDS011;14522;52.068;4.414;2023-07-31T08:32:47;8.07;;;2.55;;
26965;SDS011;14522;52.068;4.414;2023-07-31T08:35:14;9.30;;;2.03;;
26965;SDS011;14522;52.068;4.414;2023-07-31T08:37:40;8.95;;;1.48;;
26965;SDS011;14522;52.068;4.414;2023-07-31T08:40:07;4.93;;;1.30;;
26965;SDS011;14522;52.068;4.414;2023-07-31T08:42:33;9.73;;;1.55;;
26965;SDS011;14522;52.068;4.414;2023-07-31T08:45:00;8.70;;;1.95;;
26965;SDS011;14522;52.068;4.414;2023-07-31T08:47:27;11.45;;;1.77;;
26965;SDS011;14522;52.068;4.414;2023-07-31T08:49:54;6.63;;;1.50;;
26965;SDS011;14522;52.068;4.414;2023-07-31T08:52:20;7.07;;;1.67;;
26965;SDS011;14522;52.068;4.414;2023-07-31T08:54:47;8.65;;;1.90;;
26965;SDS011;14522;52.068;4.414;2023-07-31T08:57:13;8.13;;;1.48;;
26965;SDS011;14522;52.068;4.414;2023-07-31T08:59:40;9.98;;;2.03;;
26965;SDS011;14522;52.068;4.414;2023-07-31T09:02:08;7.32;;;2.17;;
26965;SDS011;14522;52.068;4.414;2023-07-31T09:04:34;8.55;;;1.95;;
26965;SDS011;14522;52.068;4.414;2023-07-31T09:07:02;4.13;;;1.35;;
26965;SDS011;14522;52.068;4.414;2023-07-31T09:09:30;9.50;;;2.08;;
26965;SDS011;14522;52.068;4.414;2023-07-31T09:11:57;6.07;;;1.13;;
26965;SDS011;14522;52.068;4.414;2023-07-31T09:14:25;4.88;;;1.25;;
26965;SDS011;14522;52.068;4.414;2023-07-31T09:16:52;8.73;;;2.15;;
26965;SDS011;14522;52.068;4.414;2023-07-31T09:19:24;5.95;;;1.02;;
26965;SDS011;14522;52.068;4.414;2023-07-31T09:21:51;8.95;;;1.83;;
26965;SDS011;14522;52.068;4.414;2023-07-31T09:24:27;11.02;;;1.42;;
26965;SDS011;14522;52.068;4.414;2023-07-31T09:26:54;7.63;;;1.70;;
26965;SDS011;14522;52.068;4.414;2023-07-31T09:29:25;6.80;;;1.25;;
26965;SDS011;14522;52.068;4.414;2023-07-31T09:31:53;3.92;;;1.27;;
26965;SDS011;14522;52.068;4.414;2023-07-31T09:34:20;8.13;;;1.75;;
26965;SDS011;14522;52.068;4.414;2023-07-31T09:36:47;7.40;;;1.30;;
26965;SDS011;14522;52.068;4.414;2023-07-31T09:39:14;9.35;;;1.67;;
26965;SDS011;14522;52.068;4.414;2023-07-31T09:41:55;14.13;;;1.85;;
26965;SDS011;14522;52.068;4.414;2023-07-31T09:44:36;8.70;;;1.65;;
26965;SDS011;14522;52.068;4.414;2023-07-31T09:47:03;6.57;;;1.88;;
26965;SDS011;14522;52.068;4.414;2023-07-31T09:49:30;6.55;;;1.58;;
26965;SDS011;14522;52.068;4.414;2023-07-31T09:51:56;7.90;;;1.80;;
26965;SDS011;14522;52.068;4.414;2023-07-31T09:54:22;8.00;;;2.03;;
26965;SDS011;14522;52.068;4.414;2023-07-31T09:56:49;9.45;;;1.77;;
26965;SDS011;14522;52.068;4.414;2023-07-31T09:59:16;10.13;;;1.75;;
26965;SDS011;14522;52.068;4.414;2023-07-31T10:01:47;9.43;;;1.77;;
26965;SDS011;14522;52.068;4.414;2023-07-31T10:04:14;12.85;;;1.55;;
26965;SDS011;14522;52.068;4.414;2023-07-31T10:06:40;7.45;;;1.95;;
26965;SDS011;14522;52.068;4.414;2023-07-31T10:09:09;7.38;;;1.73;;
26965;SDS011;14522;52.068;4.414;2023-07-31T10:11:45;5.93;;;1.70;;
26965;SDS011;14522;52.068;4.414;2023-07-31T10:14:20;8.90;;;1.52;;
26965;SDS011;14522;52.068;4.414;2023-07-31T10:16:46;10.13;;;1.50;;
26965;SDS011;14522;52.068;4.414;2023-07-31T10:19:13;3.85;;;1.20;;
26965;SDS011;14522;52.068;4.414;2023-07-31T10:21:40;7.00;;;1.85;;
26965;SDS011;14522;52.068;4.414;2023-07-31T10:24:07;7.55;;;2.00;;
26965;SDS011;14522;52.068;4.414;2023-07-31T10:26:35;6.20;;;1.63;;
26965;SDS011;14522;52.068;4.414;2023-07-31T10:29:04;6.40;;;1.77;;
26965;SDS011;14522;52.068;4.414;2023-07-31T10:31:31;7.68;;;1.67;;
26965;SDS011;14522;52.068;4.414;2023-07-31T10:33:58;14.07;;;1.90;;
26965;SDS011;14522;52.068;4.414;2023-07-31T10:36:29;13.82;;;1.77;;
26965;SDS011;14522;52.068;4.414;2023-07-31T10:38:55;7.68;;;1.70;;
26965;SDS011;14522;52.068;4.414;2023-07-31T10:41:28;11.85;;;2.17;;
26965;SDS011;14522;52.068;4.414;2023-07-31T10:43:57;11.60;;;1.50;;
26965;SDS011;14522;52.068;4.414;2023-07-31T10:46:23;8.18;;;1.80;;
26965;SDS011;14522;52.068;4.414;2023-07-31T10:48:57;13.25;;;2.17;;
26965;SDS011;14522;52.068;4.414;2023-07-31T10:51:23;8.10;;;1.55;;
26965;SDS011;14522;52.068;4.414;2023-07-31T10:54:13;3.45;;;1.17;;
26965;SDS011;14522;52.068;4.414;2023-07-31T10:56:44;5.25;;;1.17;;
26965;SDS011;14522;52.068;4.414;2023-07-31T10:59:11;6.70;;;1.60;;
26965;SDS011;14522;52.068;4.414;2023-07-31T11:04:24;14.32;;;1.52;;
26965;SDS011;14522;52.068;4.414;2023-07-31T11:09:24;7.95;;;1.73;;
26965;SDS011;14522;52.068;4.414;2023-07-31T11:11:53;8.77;;;1.50;;
26965;SDS011;14522;52.068;4.414;2023-07-31T11:14:20;6.38;;;2.22;;
26965;SDS011;14522;52.068;4.414;2023-07-31T11:16:49;7.78;;;1.50;;
26965;SDS011;14522;52.068;4.414;2023-07-31T11:19:21;7.68;;;1.38;;
26965;SDS011;14522;52.068;4.414;2023-07-31T11:21:47;7.05;;;1.35;;
26965;SDS011;14522;52.068;4.414;2023-07-31T11:24:14;3.22;;;1.00;;
26965;SDS011;14522;52.068;4.414;2023-07-31T11:26:47;8.63;;;1.20;;
26965;SDS011;14522;52.068;4.414;2023-07-31T11:29:14;5.38;;;1.10;;
26965;SDS011;14522;52.068;4.414;2023-07-31T11:31:43;8.68;;;1.73;;
26965;SDS011;14522;52.068;4.414;2023-07-31T11:34:09;9.05;;;1.27;;
26965;SDS011;14522;52.068;4.414;2023-07-31T11:36:36;8.02;;;1.20;;
26965;SDS011;14522;52.068;4.414;2023-07-31T11:39:07;6.25;;;1.20;;
26965;SDS011;14522;52.068;4.414;2023-07-31T11:41:34;5.00;;;1.23;;
26965;SDS011;14522;52.068;4.414;2023-07-31T11:44:00;7.00;;;1.40;;
26965;SDS011;14522;52.068;4.414;2023-07-31T11:46:46;9.50;;;1.30;;
26965;SDS011;14522;52.068;4.414;2023-07-31T11:49:13;11.05;;;1.50;;
26965;SDS011;14522;52.068;4.414;2023-07-31T11:51:39;6.28;;;1.45;;
26965;SDS011;14522;52.068;4.414;2023-07-31T11:54:06;3.10;;;0.80;;
26965;SDS011;14522;52.068;4.414;2023-07-31T11:56:33;5.80;;;1.75;;
26965;SDS011;14522;52.068;4.414;2023-07-31T11:58:59;3.80;;;1.10;;
26965;SDS011;14522;52.068;4.414;2023-07-31T12:01:28;4.70;;;2.25;;
26965;SDS011;14522;52.068;4.414;2023-07-31T12:03:55;2.92;;;0.88;;
26965;SDS011;14522;52.068;4.414;2023-07-31T12:06:31;6.55;;;1.10;;
26965;SDS011;14522;52.068;4.414;2023-07-31T12:09:07;4.20;;;0.90;;
26965;SDS011;14522;52.068;4.414;2023-07-31T12:11:43;5.75;;;0.90;;
26965;SDS011;14522;52.068;4.414;2023-07-31T12:14:20;5.05;;;1.08;;
26965;SDS011;14522;52.068;4.414;2023-07-31T12:16:47;8.48;;;1.00;;
26965;SDS011;14522;52.068;4.414;2023-07-31T12:19:14;4.22;;;1.00;;
26965;SDS011;14522;52.068;4.414;2023-07-31T12:21:40;5.53;;;1.15;;
26965;SDS011;14522;52.068;4.414;2023-07-31T12:24:06;4.32;;;1.15;;
26965;SDS011;14522;52.068;4.414;2023-07-31T12:26:33;4.43;;;1.17;;
26965;SDS011;14522;52.068;4.414;2023-07-31T12:29:00;7.47;;;1.33;;
26965;SDS011;14522;52.068;4.414;2023-07-31T12:31:27;8.73;;;1.50;;
26965;SDS011;14522;52.068;4.414;2023-07-31T12:33:55;8.85;;;1.50;;
26965;SDS011;14522;52.068;4.414;2023-07-31T12:36:22;4.10;;;1.20;;
26965;SDS011;14522;52.068;4.414;2023-07-31T12:38:49;4.53;;;1.40;;
26965;SDS011;14522;52.068;4.414;2023-07-31T12:41:16;6.82;;;1.23;;
26965;SDS011;14522;52.068;4.414;2023-07-31T12:43:43;4.10;;;1.17;;
26965;SDS011;14522;52.068;4.414;2023-07-31T12:46:10;7.60;;;1.60;;
26965;SDS011;14522;52.068;4.414;2023-07-31T12:48:37;3.60;;;1.10;;
26965;SDS011;14522;52.068;4.414;2023-07-31T12:51:04;2.10;;;0.70;;
26965;SDS011;14522;52.068;4.414;2023-07-31T12:53:31;4.40;;;0.88;;
26965;SDS011;14522;52.068;4.414;2023-07-31T12:55:57;5.45;;;1.10;;
26965;SDS011;14522;52.068;4.414;2023-07-31T12:58:23;5.45;;;0.70;;
26965;SDS011;14522;52.068;4.414;2023-07-31T13:00:50;3.15;;;0.77;;
26965;SDS011;14522;52.068;4.414;2023-07-31T13:03:16;3.80;;;0.80;;
26965;SDS011;14522;52.068;4.414;2023-07-31T13:05:43;1.92;;;0.57;;
26965;SDS011;14522;52.068;4.414;2023-07-31T13:08:09;0.60;;;0.30;;
26965;SDS011;14522;52.068;4.414;2023-07-31T13:10:36;3.80;;;0.45;;
26965;SDS011;14522;52.068;4.414;2023-07-31T13:13:02;1.58;;;0.65;;
26965;SDS011;14522;52.068;4.414;2023-07-31T13:15:29;2.53;;;0.70;;
26965;SDS011;14522;52.068;4.414;2023-07-31T13:17:55;1.27;;;0.55;;
26965;SDS011;14522;52.068;4.414;2023-07-31T13:20:22;1.88;;;1.35;;
26965;SDS011;14522;52.068;4.414;2023-07-31T13:22:48;4.70;;;0.82;;
26965;SDS011;14522;52.068;4.414;2023-07-31T13:25:14;2.38;;;0.95;;
26965;SDS011;14522;52.068;4.414;2023-07-31T13:27:41;2.38;;;0.60;;
26965;SDS011;14522;52.068;4.414;2023-07-31T13:30:08;4.68;;;0.77;;
26965;SDS011;14522;52.068;4.414;2023-07-31T13:32:34;2.08;;;0.60;;
26965;SDS011;14522;52.068;4.414;2023-07-31T13:35:07;2.38;;;0.63;;
26965;SDS011;14522;52.068;4.414;2023-07-31T13:37:34;2.30;;;0.80;;
26965;SDS011;14522;52.068;4.414;2023-07-31T13:40:01;2.90;;;0.52;;
26965;SDS011;14522;52.068;4.414;2023-07-31T13:42:27;3.90;;;0.65;;
26965;SDS011;14522;52.068;4.414;2023-07-31T13:44:54;4.00;;;1.10;;
26965;SDS011;14522;52.068;4.414;2023-07-31T13:47:22;3.65;;;0.60;;
26965;SDS011;14522;52.068;4.414;2023-07-31T13:49:48;3.47;;;1.08;;
26965;SDS011;14522;52.068;4.414;2023-07-31T13:52:15;1.92;;;0.55;;
26965;SDS011;14522;52.068;4.414;2023-07-31T13:54:41;4.93;;;0.82;;
26965;SDS011;14522;52.068;4.414;2023-07-31T13:57:09;5.28;;;1.30;;
26965;SDS011;14522;52.068;4.414;2023-07-31T13:59:35;2.10;;;0.43;;
26965;SDS011;14522;52.068;4.414;2023-07-31T14:02:02;1.30;;;0.50;;
26965;SDS011;14522;52.068;4.414;2023-07-31T14:04:29;1.75;;;0.40;;
26965;SDS011;14522;52.068;4.414;2023-07-31T14:06:56;3.63;;;0.50;;
26965;SDS011;14522;52.068;4.414;2023-07-31T14:09:22;3.47;;;0.43;;
26965;SDS011;14522;52.068;4.414;2023-07-31T14:11:49;1.15;;;0.30;;
26965;SDS011;14522;52.068;4.414;2023-07-31T14:14:15;1.30;;;0.30;;
26965;SDS011;14522;52.068;4.414;2023-07-31T14:16:44;1.10;;;0.20;;
26965;SDS011;14522;52.068;4.414;2023-07-31T14:19:10;0.55;;;0.20;;
26965;SDS011;14522;52.068;4.414;2023-07-31T14:21:37;1.15;;;0.30;;
26965;SDS011;14522;52.068;4.414;2023-07-31T14:24:03;0.38;;;0.10;;
26965;SDS011;14522;52.068;4.414;2023-07-31T14:26:30;0.75;;;0.20;;
26965;SDS011;14522;52.068;4.414;2023-07-31T14:28:56;1.02;;;0.28;;
26965;SDS011;14522;52.068;4.414;2023-07-31T14:31:23;1.92;;;0.40;;
26965;SDS011;14522;52.068;4.414;2023-07-31T14:33:49;2.83;;;0.50;;
26965;SDS011;14522;52.068;4.414;2023-07-31T14:36:16;1.40;;;0.30;;
26965;SDS011;14522;52.068;4.414;2023-07-31T14:38:42;0.30;;;0.28;;
26965;SDS011;14522;52.068;4.414;2023-07-31T14:41:08;0.80;;;0.20;;
26965;SDS011;14522;52.068;4.414;2023-07-31T14:43:35;0.75;;;0.22;;
26965;SDS011;14522;52.068;4.414;2023-07-31T14:46:01;0.30;;;0.30;;
26965;SDS011;14522;52.068;4.414;2023-07-31T14:48:28;0.80;;;0.50;;
26965;SDS011;14522;52.068;4.414;2023-07-31T14:50:55;0.35;;;0.15;;
26965;SDS011;14522;52.068;4.414;2023-07-31T14:53:21;2.03;;;0.30;;